sensor_id;sensor_type;location;lat;lon;timestamp;P1;durP1;ratioP1;P2;durP2;ratioP2
70342;SDS011;57767;42.068;24.752;2023-07-20T00:00:11;13.80;;;5.25;;
70342;SDS011;57767;42.068;24.752;2023-07-20T00:01:15;8.35;;;4.80;;
70342;SDS011;57767;42.068;24.752;2023-07-20T00:02:17;7.90;;;5.20;;
70342;SDS011;57767;42.068;24.752;2023-07-20T00:03:19;12.68;;;4.82;;
70342;SDS011;57767;42.068;24.752;2023-07-20T00:04:24;11.32;;;5.65;;
70342;SDS011;57767;42.068;24.752;2023-07-20T00:05:26;17.48;;;5.35;;
70342;SDS011;57767;42.068;24.752;2023-07-20T00:06:28;12.40;;;6.03;;
70342;SDS011;57767;42.068;24.752;2023-07-20T00:07:29;19.98;;;5.72;;
70342;SDS011;57767;42.068;24.752;2023-07-20T00:08:31;10.40;;;5.90;;
70342;SDS011;57767;42.068;24.752;2023-07-20T00:09:33;10.48;;;5.25;;
70342;SDS011;57767;42.068;24.752;2023-07-20T00:10:35;16.90;;;5.40;;
70342;SDS011;57767;42.068;24.752;2023-07-20T00:11:38;14.30;;;5.43;;
70342;SDS011;57767;42.068;24.752;2023-07-20T00:12:40;8.25;;;4.70;;
70342;SDS011;57767;42.068;24.752;2023-07-20T00:13:42;11.13;;;5.90;;
70342;SDS011;57767;42.068;24.752;2023-07-20T00:14:44;10.45;;;5.10;;
70342;SDS011;57767;42.068;24.752;2023-07-20T00:15:46;9.80;;;5.35;;
70342;SDS011;57767;42.068;24.752;2023-07-20T00:16:51;11.10;;;6.18;;
70342;SDS011;57767;42.068;24.752;2023-07-20T00:18:02;12.60;;;5.22;;
70342;SDS011;57767;42.068;24.752;2023-07-20T00:19:04;11.68;;;4.88;;
70342;SDS011;57767;42.068;24.752;2023-07-20T00:20:08;10.32;;;5.20;;
70342;SDS011;57767;42.068;24.752;2023-07-20T00:21:10;15.13;;;5.13;;
70342;SDS011;57767;42.068;24.752;2023-07-20T00:22:12;16.00;;;5.65;;
70342;SDS011;57767;42.068;24.752;2023-07-20T00:23:15;12.45;;;5.20;;
70342;SDS011;57767;42.068;24.752;2023-07-20T00:24:16;12.60;;;5.35;;
70342;SDS011;57767;42.068;24.752;2023-07-20T00:25:18;10.18;;;5.35;;
70342;SDS011;57767;42.068;24.752;2023-07-20T00:26:20;5.63;;;4.90;;
70342;SDS011;57767;42.068;24.752;2023-07-20T00:27:22;10.10;;;4.57;;
70342;SDS011;57767;42.068;24.752;2023-07-20T00:28:24;8.60;;;4.70;;
70342;SDS011;57767;42.068;24.752;2023-07-20T00:29:26;9.63;;;4.80;;
70342;SDS011;57767;42.068;24.752;2023-07-20T00:30:27;9.38;;;5.18;;
70342;SDS011;57767;42.068;24.752;2023-07-20T00:31:29;10.18;;;5.80;;
70342;SDS011;57767;42.068;24.752;2023-07-20T00:32:31;9.25;;;4.82;;
70342;SDS011;57767;42.068;24.752;2023-07-20T00:33:33;8.32;;;5.13;;
70342;SDS011;57767;42.068;24.752;2023-07-20T00:34:35;8.40;;;5.45;;
70342;SDS011;57767;42.068;24.752;2023-07-20T00:35:37;9.75;;;6.20;;
70342;SDS011;57767;42.068;24.752;2023-07-20T00:36:40;10.57;;;5.18;;
70342;SDS011;57767;42.068;24.752;2023-07-20T00:37:42;9.85;;;5.53;;
70342;SDS011;57767;42.068;24.752;2023-07-20T00:38:45;10.07;;;5.40;;
70342;SDS011;57767;42.068;24.752;2023-07-20T00:39:46;12.90;;;5.72;;
70342;SDS011;57767;42.068;24.752;2023-07-20T00:40:48;9.25;;;5.95;;
70342;SDS011;57767;42.068;24.752;2023-07-20T00:41:50;13.85;;;6.28;;
70342;SDS011;57767;42.068;24.752;2023-07-20T00:42:52;12.88;;;4.90;;
70342;SDS011;57767;42.068;24.752;2023-07-20T00:43:54;10.77;;;4.65;;
70342;SDS011;57767;42.068;24.752;2023-07-20T00:44:56;14.73;;;4.60;;
70342;SDS011;57767;42.068;24.752;2023-07-20T00:45:58;7.47;;;4.60;;
70342;SDS011;57767;42.068;24.752;2023-07-20T00:47:00;10.50;;;5.00;;
70342;SDS011;57767;42.068;24.752;2023-07-20T00:48:02;7.68;;;4.82;;
70342;SDS011;57767;42.068;24.752;2023-07-20T00:49:08;9.30;;;4.78;;
70342;SDS011;57767;42.068;24.752;2023-07-20T00:50:09;8.13;;;5.13;;
70342;SDS011;57767;42.068;24.752;2023-07-20T00:51:12;10.40;;;4.80;;
70342;SDS011;57767;42.068;24.752;2023-07-20T00:52:14;9.88;;;4.55;;
70342;SDS011;57767;42.068;24.752;2023-07-20T00:53:16;8.57;;;4.65;;
70342;SDS011;57767;42.068;24.752;2023-07-20T00:54:18;9.45;;;4.95;;
70342;SDS011;57767;42.068;24.752;2023-07-20T00:55:20;11.30;;;5.68;;
70342;SDS011;57767;42.068;24.752;2023-07-20T00:56:23;8.68;;;4.70;;
70342;SDS011;57767;42.068;24.752;2023-07-20T00:57:25;10.18;;;4.90;;
70342;SDS011;57767;42.068;24.752;2023-07-20T00:58:28;7.50;;;4.78;;
70342;SDS011;57767;42.068;24.752;2023-07-20T00:59:30;7.65;;;5.00;;
70342;SDS011;57767;42.068;24.752;2023-07-20T01:00:32;9.02;;;5.15;;
70342;SDS011;57767;42.068;24.752;2023-07-20T01:01:34;9.98;;;4.28;;
70342;SDS011;57767;42.068;24.752;2023-07-20T01:02:35;10.02;;;4.88;;
70342;SDS011;57767;42.068;24.752;2023-07-20T01:03:38;10.18;;;4.50;;
70342;SDS011;57767;42.068;24.752;2023-07-20T01:04:40;6.80;;;4.43;;
70342;SDS011;57767;42.068;24.752;2023-07-20T01:05:47;10.90;;;4.70;;
70342;SDS011;57767;42.068;24.752;2023-07-20T01:08:07;12.13;;;4.78;;
70342;SDS011;57767;42.068;24.752;2023-07-20T01:09:18;11.18;;;4.50;;
70342;SDS011;57767;42.068;24.752;2023-07-20T01:11:38;7.97;;;4.95;;
70342;SDS011;57767;42.068;24.752;2023-07-20T01:12:47;9.80;;;4.47;;
70342;SDS011;57767;42.068;24.752;2023-07-20T01:13:52;9.52;;;4.53;;
70342;SDS011;57767;42.068;24.752;2023-07-20T01:14:54;8.85;;;4.72;;
70342;SDS011;57767;42.068;24.752;2023-07-20T01:15:57;11.57;;;4.70;;
70342;SDS011;57767;42.068;24.752;2023-07-20T01:17:02;6.30;;;4.47;;
70342;SDS011;57767;42.068;24.752;2023-07-20T01:18:04;9.77;;;4.75;;
70342;SDS011;57767;42.068;24.752;2023-07-20T01:19:08;13.18;;;4.70;;
70342;SDS011;57767;42.068;24.752;2023-07-20T01:20:11;9.43;;;4.43;;
70342;SDS011;57767;42.068;24.752;2023-07-20T01:21:21;9.35;;;5.13;;
70342;SDS011;57767;42.068;24.752;2023-07-20T01:27:40;6.82;;;4.88;;
70342;SDS011;57767;42.068;24.752;2023-07-20T01:30:23;15.68;;;4.70;;
70342;SDS011;57767;42.068;24.752;2023-07-20T01:31:35;10.45;;;5.15;;
70342;SDS011;57767;42.068;24.752;2023-07-20T01:32:40;8.48;;;4.78;;
70342;SDS011;57767;42.068;24.752;2023-07-20T01:33:44;13.43;;;4.68;;
70342;SDS011;57767;42.068;24.752;2023-07-20T01:34:47;11.70;;;5.18;;
70342;SDS011;57767;42.068;24.752;2023-07-20T01:35:54;13.23;;;5.40;;
70342;SDS011;57767;42.068;24.752;2023-07-20T01:36:59;9.18;;;5.13;;
70342;SDS011;57767;42.068;24.752;2023-07-20T01:38:02;8.60;;;4.95;;
70342;SDS011;57767;42.068;24.752;2023-07-20T01:39:05;12.55;;;5.00;;
70342;SDS011;57767;42.068;24.752;2023-07-20T01:40:08;11.05;;;4.90;;
70342;SDS011;57767;42.068;24.752;2023-07-20T01:41:11;10.15;;;4.63;;
70342;SDS011;57767;42.068;24.752;2023-07-20T01:42:13;14.30;;;4.90;;
70342;SDS011;57767;42.068;24.752;2023-07-20T01:43:18;7.38;;;5.20;;
70342;SDS011;57767;42.068;24.752;2023-07-20T01:44:20;14.80;;;5.47;;
70342;SDS011;57767;42.068;24.752;2023-07-20T01:45:22;10.13;;;4.60;;
70342;SDS011;57767;42.068;24.752;2023-07-20T01:46:23;8.27;;;4.60;;
70342;SDS011;57767;42.068;24.752;2023-07-20T01:47:26;17.55;;;5.20;;
70342;SDS011;57767;42.068;24.752;2023-07-20T01:48:28;7.60;;;4.68;;
70342;SDS011;57767;42.068;24.752;2023-07-20T01:49:29;12.45;;;5.00;;
70342;SDS011;57767;42.068;24.752;2023-07-20T01:50:31;10.18;;;4.97;;
70342;SDS011;57767;42.068;24.752;2023-07-20T01:51:34;10.77;;;5.00;;
70342;SDS011;57767;42.068;24.752;2023-07-20T01:52:35;9.52;;;4.93;;
70342;SDS011;57767;42.068;24.752;2023-07-20T01:53:37;7.28;;;4.80;;
70342;SDS011;57767;42.068;24.752;2023-07-20T01:54:39;14.45;;;5.43;;
70342;SDS011;57767;42.068;24.752;2023-07-20T01:55:41;11.43;;;5.63;;
70342;SDS011;57767;42.068;24.752;2023-07-20T01:56:42;11.98;;;5.18;;
70342;SDS011;57767;42.068;24.752;2023-07-20T01:57:44;15.68;;;5.50;;
70342;SDS011;57767;42.068;24.752;2023-07-20T01:58:46;8.88;;;4.85;;
70342;SDS011;57767;42.068;24.752;2023-07-20T01:59:48;7.93;;;5.25;;
70342;SDS011;57767;42.068;24.752;2023-07-20T02:00:50;12.80;;;4.95;;
70342;SDS011;57767;42.068;24.752;2023-07-20T02:01:52;6.78;;;5.13;;
70342;SDS011;57767;42.068;24.752;2023-07-20T02:02:53;8.52;;;5.20;;
70342;SDS011;57767;42.068;24.752;2023-07-20T02:03:55;13.57;;;5.30;;
70342;SDS011;57767;42.068;24.752;2023-07-20T02:04:57;9.88;;;4.93;;
70342;SDS011;57767;42.068;24.752;2023-07-20T02:05:59;11.52;;;5.00;;
70342;SDS011;57767;42.068;24.752;2023-07-20T02:07:01;9.10;;;4.88;;
70342;SDS011;57767;42.068;24.752;2023-07-20T02:08:03;10.85;;;5.32;;
70342;SDS011;57767;42.068;24.752;2023-07-20T02:09:05;9.07;;;4.90;;
70342;SDS011;57767;42.068;24.752;2023-07-20T02:10:06;10.57;;;4.60;;
70342;SDS011;57767;42.068;24.752;2023-07-20T02:11:08;9.23;;;5.03;;
70342;SDS011;57767;42.068;24.752;2023-07-20T02:12:11;10.20;;;5.32;;
70342;SDS011;57767;42.068;24.752;2023-07-20T02:13:13;10.65;;;4.80;;
70342;SDS011;57767;42.068;24.752;2023-07-20T02:14:14;11.95;;;5.05;;
70342;SDS011;57767;42.068;24.752;2023-07-20T02:15:16;13.30;;;5.60;;
70342;SDS011;57767;42.068;24.752;2023-07-20T02:16:20;8.10;;;5.20;;
70342;SDS011;57767;42.068;24.752;2023-07-20T02:17:22;11.43;;;5.40;;
70342;SDS011;57767;42.068;24.752;2023-07-20T02:18:24;10.18;;;5.22;;
70342;SDS011;57767;42.068;24.752;2023-07-20T02:19:26;11.45;;;5.18;;
70342;SDS011;57767;42.068;24.752;2023-07-20T02:20:28;15.05;;;4.90;;
70342;SDS011;57767;42.068;24.752;2023-07-20T02:21:30;10.25;;;5.10;;
70342;SDS011;57767;42.068;24.752;2023-07-20T02:22:32;7.32;;;5.38;;
70342;SDS011;57767;42.068;24.752;2023-07-20T02:23:33;12.48;;;5.18;;
70342;SDS011;57767;42.068;24.752;2023-07-20T02:24:36;15.80;;;5.35;;
70342;SDS011;57767;42.068;24.752;2023-07-20T02:25:37;8.68;;;4.95;;
70342;SDS011;57767;42.068;24.752;2023-07-20T02:26:40;8.07;;;4.82;;
70342;SDS011;57767;42.068;24.752;2023-07-20T02:27:42;7.82;;;4.93;;
70342;SDS011;57767;42.068;24.752;2023-07-20T02:28:44;8.63;;;4.97;;
70342;SDS011;57767;42.068;24.752;2023-07-20T02:29:46;8.32;;;5.38;;
70342;SDS011;57767;42.068;24.752;2023-07-20T02:30:48;10.70;;;5.25;;
70342;SDS011;57767;42.068;24.752;2023-07-20T02:31:50;7.03;;;5.10;;
70342;SDS011;57767;42.068;24.752;2023-07-20T02:32:52;10.10;;;5.00;;
70342;SDS011;57767;42.068;24.752;2023-07-20T02:33:54;8.48;;;4.97;;
70342;SDS011;57767;42.068;24.752;2023-07-20T02:34:57;11.52;;;4.82;;
70342;SDS011;57767;42.068;24.752;2023-07-20T02:36:00;8.25;;;4.97;;
70342;SDS011;57767;42.068;24.752;2023-07-20T02:37:01;13.88;;;5.28;;
70342;SDS011;57767;42.068;24.752;2023-07-20T02:38:03;8.25;;;4.50;;
70342;SDS011;57767;42.068;24.752;2023-07-20T02:39:05;10.95;;;5.15;;
70342;SDS011;57767;42.068;24.752;2023-07-20T02:40:08;7.65;;;4.88;;
70342;SDS011;57767;42.068;24.752;2023-07-20T02:41:10;7.03;;;4.95;;
70342;SDS011;57767;42.068;24.752;2023-07-20T02:42:12;11.35;;;4.93;;
70342;SDS011;57767;42.068;24.752;2023-07-20T02:43:14;9.20;;;5.22;;
70342;SDS011;57767;42.068;24.752;2023-07-20T02:44:16;12.60;;;5.05;;
70342;SDS011;57767;42.068;24.752;2023-07-20T02:45:18;7.18;;;5.13;;
70342;SDS011;57767;42.068;24.752;2023-07-20T02:46:20;11.00;;;5.10;;
70342;SDS011;57767;42.068;24.752;2023-07-20T02:47:22;10.15;;;4.82;;
70342;SDS011;57767;42.068;24.752;2023-07-20T02:48:24;10.98;;;4.97;;
70342;SDS011;57767;42.068;24.752;2023-07-20T02:49:26;7.00;;;4.85;;
70342;SDS011;57767;42.068;24.752;2023-07-20T02:50:28;8.57;;;5.18;;
70342;SDS011;57767;42.068;24.752;2023-07-20T02:51:30;12.25;;;5.07;;
70342;SDS011;57767;42.068;24.752;2023-07-20T02:52:32;10.57;;;5.13;;
70342;SDS011;57767;42.068;24.752;2023-07-20T02:53:33;15.82;;;5.75;;
70342;SDS011;57767;42.068;24.752;2023-07-20T02:54:35;10.90;;;4.95;;
70342;SDS011;57767;42.068;24.752;2023-07-20T02:55:37;9.30;;;5.15;;
70342;SDS011;57767;42.068;24.752;2023-07-20T02:56:39;10.85;;;5.50;;
70342;SDS011;57767;42.068;24.752;2023-07-20T02:57:41;6.47;;;5.18;;
70342;SDS011;57767;42.068;24.752;2023-07-20T02:58:42;8.93;;;5.47;;
70342;SDS011;57767;42.068;24.752;2023-07-20T02:59:45;9.55;;;5.45;;
70342;SDS011;57767;42.068;24.752;2023-07-20T03:00:47;8.30;;;5.25;;
70342;SDS011;57767;42.068;24.752;2023-07-20T03:01:48;10.30;;;4.90;;
70342;SDS011;57767;42.068;24.752;2023-07-20T03:02:50;11.13;;;5.20;;
70342;SDS011;57767;42.068;24.752;2023-07-20T03:03:57;9.50;;;5.28;;
70342;SDS011;57767;42.068;24.752;2023-07-20T03:04:59;8.15;;;4.32;;
70342;SDS011;57767;42.068;24.752;2023-07-20T03:06:02;9.40;;;5.13;;
70342;SDS011;57767;42.068;24.752;2023-07-20T03:07:04;10.15;;;4.63;;
70342;SDS011;57767;42.068;24.752;2023-07-20T03:08:07;8.88;;;4.97;;
70342;SDS011;57767;42.068;24.752;2023-07-20T03:09:09;13.45;;;5.05;;
70342;SDS011;57767;42.068;24.752;2023-07-20T03:10:11;5.63;;;4.75;;
70342;SDS011;57767;42.068;24.752;2023-07-20T03:11:15;7.93;;;4.35;;
70342;SDS011;57767;42.068;24.752;2023-07-20T03:12:17;8.32;;;4.70;;
70342;SDS011;57767;42.068;24.752;2023-07-20T03:13:19;6.80;;;4.35;;
70342;SDS011;57767;42.068;24.752;2023-07-20T03:14:21;8.73;;;4.63;;
70342;SDS011;57767;42.068;24.752;2023-07-20T03:15:24;10.27;;;4.65;;
70342;SDS011;57767;42.068;24.752;2023-07-20T03:16:26;6.90;;;4.65;;
70342;SDS011;57767;42.068;24.752;2023-07-20T03:17:28;11.95;;;4.70;;
70342;SDS011;57767;42.068;24.752;2023-07-20T03:18:29;9.40;;;4.40;;
70342;SDS011;57767;42.068;24.752;2023-07-20T03:19:31;17.60;;;4.72;;
70342;SDS011;57767;42.068;24.752;2023-07-20T03:20:34;9.80;;;4.82;;
70342;SDS011;57767;42.068;24.752;2023-07-20T03:21:37;8.30;;;4.47;;
70342;SDS011;57767;42.068;24.752;2023-07-20T03:22:42;7.20;;;4.40;;
70342;SDS011;57767;42.068;24.752;2023-07-20T03:23:44;8.88;;;5.00;;
70342;SDS011;57767;42.068;24.752;2023-07-20T03:24:45;12.90;;;4.72;;
70342;SDS011;57767;42.068;24.752;2023-07-20T03:25:47;6.60;;;4.78;;
70342;SDS011;57767;42.068;24.752;2023-07-20T03:26:49;9.85;;;4.75;;
70342;SDS011;57767;42.068;24.752;2023-07-20T03:27:51;6.68;;;4.10;;
70342;SDS011;57767;42.068;24.752;2023-07-20T03:28:52;9.20;;;5.20;;
70342;SDS011;57767;42.068;24.752;2023-07-20T03:29:54;14.80;;;4.40;;
70342;SDS011;57767;42.068;24.752;2023-07-20T03:30:56;6.90;;;4.38;;
70342;SDS011;57767;42.068;24.752;2023-07-20T03:31:59;10.05;;;4.60;;
70342;SDS011;57767;42.068;24.752;2023-07-20T03:33:01;7.53;;;4.05;;
70342;SDS011;57767;42.068;24.752;2023-07-20T03:34:04;4.88;;;4.05;;
70342;SDS011;57767;42.068;24.752;2023-07-20T03:35:06;7.05;;;4.32;;
70342;SDS011;57767;42.068;24.752;2023-07-20T03:36:08;11.38;;;4.50;;
70342;SDS011;57767;42.068;24.752;2023-07-20T03:37:12;6.43;;;4.22;;
70342;SDS011;57767;42.068;24.752;2023-07-20T03:38:14;8.23;;;4.22;;
70342;SDS011;57767;42.068;24.752;2023-07-20T03:39:16;4.85;;;3.78;;
70342;SDS011;57767;42.068;24.752;2023-07-20T03:40:18;8.13;;;4.32;;
70342;SDS011;57767;42.068;24.752;2023-07-20T03:41:20;11.02;;;4.53;;
70342;SDS011;57767;42.068;24.752;2023-07-20T03:42:23;7.28;;;4.47;;
70342;SDS011;57767;42.068;24.752;2023-07-20T03:43:26;9.48;;;5.75;;
70342;SDS011;57767;42.068;24.752;2023-07-20T03:44:29;8.68;;;4.80;;
70342;SDS011;57767;42.068;24.752;2023-07-20T03:45:30;9.82;;;4.60;;
70342;SDS011;57767;42.068;24.752;2023-07-20T03:46:32;11.32;;;4.95;;
70342;SDS011;57767;42.068;24.752;2023-07-20T03:47:35;9.35;;;5.03;;
70342;SDS011;57767;42.068;24.752;2023-07-20T03:48:37;11.27;;;4.53;;
70342;SDS011;57767;42.068;24.752;2023-07-20T03:49:39;7.95;;;4.63;;
70342;SDS011;57767;42.068;24.752;2023-07-20T03:50:41;10.07;;;4.50;;
70342;SDS011;57767;42.068;24.752;2023-07-20T03:51:42;9.57;;;4.35;;
70342;SDS011;57767;42.068;24.752;2023-07-20T03:52:44;5.57;;;4.15;;
70342;SDS011;57767;42.068;24.752;2023-07-20T03:53:46;11.15;;;5.30;;
70342;SDS011;57767;42.068;24.752;2023-07-20T03:54:48;9.80;;;4.40;;
70342;SDS011;57767;42.068;24.752;2023-07-20T03:55:50;6.93;;;4.32;;
70342;SDS011;57767;42.068;24.752;2023-07-20T03:56:53;7.70;;;3.92;;
70342;SDS011;57767;42.068;24.752;2023-07-20T03:57:55;5.72;;;4.43;;
70342;SDS011;57767;42.068;24.752;2023-07-20T03:58:57;11.07;;;4.18;;
70342;SDS011;57767;42.068;24.752;2023-07-20T03:59:58;9.48;;;4.28;;
70342;SDS011;57767;42.068;24.752;2023-07-20T04:01:00;7.22;;;3.90;;
70342;SDS011;57767;42.068;24.752;2023-07-20T04:02:02;7.28;;;4.28;;
70342;SDS011;57767;42.068;24.752;2023-07-20T04:03:04;7.25;;;4.20;;
70342;SDS011;57767;42.068;24.752;2023-07-20T04:04:06;8.40;;;4.95;;
70342;SDS011;57767;42.068;24.752;2023-07-20T04:05:09;13.35;;;4.47;;
70342;SDS011;57767;42.068;24.752;2023-07-20T04:06:11;12.20;;;4.55;;
70342;SDS011;57767;42.068;24.752;2023-07-20T04:07:15;8.75;;;4.20;;
70342;SDS011;57767;42.068;24.752;2023-07-20T04:08:17;8.57;;;3.90;;
70342;SDS011;57767;42.068;24.752;2023-07-20T04:09:19;10.10;;;4.30;;
70342;SDS011;57767;42.068;24.752;2023-07-20T04:10:21;11.25;;;4.20;;
70342;SDS011;57767;42.068;24.752;2023-07-20T04:11:22;7.72;;;3.88;;
70342;SDS011;57767;42.068;24.752;2023-07-20T04:12:24;8.30;;;3.85;;
70342;SDS011;57767;42.068;24.752;2023-07-20T04:13:26;6.78;;;3.90;;
70342;SDS011;57767;42.068;24.752;2023-07-20T04:14:28;7.47;;;3.65;;
70342;SDS011;57767;42.068;24.752;2023-07-20T04:15:30;8.40;;;4.10;;
70342;SDS011;57767;42.068;24.752;2023-07-20T04:16:32;10.23;;;3.95;;
70342;SDS011;57767;42.068;24.752;2023-07-20T04:17:34;12.43;;;4.85;;
70342;SDS011;57767;42.068;24.752;2023-07-20T04:18:36;8.80;;;4.07;;
70342;SDS011;57767;42.068;24.752;2023-07-20T04:19:38;12.70;;;4.55;;
70342;SDS011;57767;42.068;24.752;2023-07-20T04:20:40;16.20;;;4.72;;
70342;SDS011;57767;42.068;24.752;2023-07-20T04:21:42;10.88;;;3.95;;
70342;SDS011;57767;42.068;24.752;2023-07-20T04:22:44;9.68;;;4.20;;
70342;SDS011;57767;42.068;24.752;2023-07-20T04:23:46;10.10;;;4.32;;
70342;SDS011;57767;42.068;24.752;2023-07-20T04:24:48;5.95;;;3.95;;
70342;SDS011;57767;42.068;24.752;2023-07-20T04:25:50;8.90;;;4.20;;
70342;SDS011;57767;42.068;24.752;2023-07-20T04:26:53;10.32;;;4.53;;
70342;SDS011;57767;42.068;24.752;2023-07-20T04:27:55;9.27;;;4.53;;
70342;SDS011;57767;42.068;24.752;2023-07-20T04:28:57;9.23;;;4.53;;
70342;SDS011;57767;42.068;24.752;2023-07-20T04:30:00;8.52;;;4.38;;
70342;SDS011;57767;42.068;24.752;2023-07-20T04:31:15;6.20;;;4.15;;
70342;SDS011;57767;42.068;24.752;2023-07-20T04:32:17;15.23;;;4.40;;
70342;SDS011;57767;42.068;24.752;2023-07-20T04:33:19;9.45;;;4.50;;
70342;SDS011;57767;42.068;24.752;2023-07-20T04:34:21;7.90;;;4.28;;
70342;SDS011;57767;42.068;24.752;2023-07-20T04:36:46;9.88;;;4.22;;
70342;SDS011;57767;42.068;24.752;2023-07-20T04:37:48;13.27;;;4.25;;
70342;SDS011;57767;42.068;24.752;2023-07-20T04:38:50;19.42;;;5.43;;
70342;SDS011;57767;42.068;24.752;2023-07-20T04:39:52;21.23;;;5.93;;
70342;SDS011;57767;42.068;24.752;2023-07-20T04:40:53;21.33;;;5.32;;
70342;SDS011;57767;42.068;24.752;2023-07-20T04:41:55;16.50;;;5.32;;
70342;SDS011;57767;42.068;24.752;2023-07-20T04:42:57;19.63;;;6.00;;
70342;SDS011;57767;42.068;24.752;2023-07-20T04:43:59;20.23;;;5.80;;
70342;SDS011;57767;42.068;24.752;2023-07-20T04:45:01;16.15;;;5.20;;
70342;SDS011;57767;42.068;24.752;2023-07-20T04:46:02;17.90;;;5.40;;
70342;SDS011;57767;42.068;24.752;2023-07-20T04:47:04;17.38;;;5.32;;
70342;SDS011;57767;42.068;24.752;2023-07-20T04:48:08;12.77;;;5.53;;
70342;SDS011;57767;42.068;24.752;2023-07-20T04:49:14;11.43;;;5.00;;
70342;SDS011;57767;42.068;24.752;2023-07-20T04:50:16;12.68;;;5.03;;
70342;SDS011;57767;42.068;24.752;2023-07-20T04:51:18;16.65;;;5.43;;
70342;SDS011;57767;42.068;24.752;2023-07-20T04:52:22;8.43;;;5.53;;
70342;SDS011;57767;42.068;24.752;2023-07-20T04:53:37;12.30;;;5.40;;
70342;SDS011;57767;42.068;24.752;2023-07-20T04:54:39;16.17;;;6.32;;
70342;SDS011;57767;42.068;24.752;2023-07-20T04:55:47;15.95;;;6.00;;
70342;SDS011;57767;42.068;24.752;2023-07-20T04:56:52;17.83;;;6.50;;
70342;SDS011;57767;42.068;24.752;2023-07-20T04:57:55;13.38;;;6.20;;
70342;SDS011;57767;42.068;24.752;2023-07-20T04:58:57;16.65;;;6.30;;
70342;SDS011;57767;42.068;24.752;2023-07-20T04:59:58;16.33;;;6.15;;
70342;SDS011;57767;42.068;24.752;2023-07-20T05:01:00;17.17;;;6.55;;
70342;SDS011;57767;42.068;24.752;2023-07-20T05:02:02;18.13;;;6.25;;
70342;SDS011;57767;42.068;24.752;2023-07-20T05:03:04;17.63;;;6.80;;
70342;SDS011;57767;42.068;24.752;2023-07-20T05:04:07;12.93;;;7.25;;
70342;SDS011;57767;42.068;24.752;2023-07-20T05:05:09;19.17;;;7.57;;
70342;SDS011;57767;42.068;24.752;2023-07-20T05:06:11;17.13;;;8.35;;
70342;SDS011;57767;42.068;24.752;2023-07-20T05:07:13;17.27;;;8.00;;
70342;SDS011;57767;42.068;24.752;2023-07-20T05:08:15;21.67;;;7.93;;
70342;SDS011;57767;42.068;24.752;2023-07-20T05:09:17;23.95;;;7.97;;
70342;SDS011;57767;42.068;24.752;2023-07-20T05:10:19;15.65;;;6.85;;
70342;SDS011;57767;42.068;24.752;2023-07-20T05:11:21;15.25;;;7.78;;
70342;SDS011;57767;42.068;24.752;2023-07-20T05:12:23;14.75;;;7.15;;
70342;SDS011;57767;42.068;24.752;2023-07-20T05:13:25;19.63;;;7.28;;
70342;SDS011;57767;42.068;24.752;2023-07-20T05:14:27;20.23;;;7.00;;
70342;SDS011;57767;42.068;24.752;2023-07-20T05:15:28;24.85;;;7.10;;
70342;SDS011;57767;42.068;24.752;2023-07-20T05:16:30;20.75;;;6.88;;
70342;SDS011;57767;42.068;24.752;2023-07-20T05:17:32;15.27;;;7.30;;
70342;SDS011;57767;42.068;24.752;2023-07-20T05:18:34;14.45;;;7.13;;
70342;SDS011;57767;42.068;24.752;2023-07-20T05:19:36;16.40;;;7.15;;
70342;SDS011;57767;42.068;24.752;2023-07-20T05:20:38;24.50;;;7.68;;
70342;SDS011;57767;42.068;24.752;2023-07-20T05:21:39;14.57;;;7.18;;
70342;SDS011;57767;42.068;24.752;2023-07-20T05:22:41;17.35;;;7.53;;
70342;SDS011;57767;42.068;24.752;2023-07-20T05:23:44;13.60;;;7.20;;
70342;SDS011;57767;42.068;24.752;2023-07-20T05:24:46;20.17;;;7.57;;
70342;SDS011;57767;42.068;24.752;2023-07-20T05:25:58;23.67;;;8.07;;
70342;SDS011;57767;42.068;24.752;2023-07-20T05:27:00;19.02;;;7.93;;
70342;SDS011;57767;42.068;24.752;2023-07-20T05:28:02;21.60;;;8.48;;
70342;SDS011;57767;42.068;24.752;2023-07-20T05:29:04;21.40;;;7.93;;
70342;SDS011;57767;42.068;24.752;2023-07-20T05:30:06;20.33;;;6.90;;
70342;SDS011;57767;42.068;24.752;2023-07-20T05:31:09;22.15;;;8.02;;
70342;SDS011;57767;42.068;24.752;2023-07-20T05:32:10;22.13;;;7.68;;
70342;SDS011;57767;42.068;24.752;2023-07-20T05:33:12;19.73;;;7.03;;
70342;SDS011;57767;42.068;24.752;2023-07-20T05:34:14;13.25;;;6.70;;
70342;SDS011;57767;42.068;24.752;2023-07-20T05:35:17;15.55;;;6.97;;
70342;SDS011;57767;42.068;24.752;2023-07-20T05:36:19;20.33;;;6.20;;
70342;SDS011;57767;42.068;24.752;2023-07-20T05:37:21;10.63;;;6.00;;
70342;SDS011;57767;42.068;24.752;2023-07-20T05:38:23;11.10;;;5.30;;
70342;SDS011;57767;42.068;24.752;2023-07-20T05:39:25;16.25;;;9.50;;
70342;SDS011;57767;42.068;24.752;2023-07-20T05:40:27;14.45;;;5.93;;
70342;SDS011;57767;42.068;24.752;2023-07-20T05:41:29;17.05;;;6.00;;
70342;SDS011;57767;42.068;24.752;2023-07-20T05:42:30;14.73;;;6.25;;
70342;SDS011;57767;42.068;24.752;2023-07-20T05:43:33;13.25;;;5.90;;
70342;SDS011;57767;42.068;24.752;2023-07-20T05:44:34;14.10;;;5.80;;
70342;SDS011;57767;42.068;24.752;2023-07-20T05:45:36;12.93;;;6.22;;
70342;SDS011;57767;42.068;24.752;2023-07-20T05:46:38;14.23;;;5.57;;
70342;SDS011;57767;42.068;24.752;2023-07-20T05:47:57;16.05;;;6.50;;
70342;SDS011;57767;42.068;24.752;2023-07-20T05:48:59;14.07;;;6.30;;
70342;SDS011;57767;42.068;24.752;2023-07-20T05:50:01;16.75;;;6.30;;
70342;SDS011;57767;42.068;24.752;2023-07-20T05:51:04;28.45;;;6.53;;
70342;SDS011;57767;42.068;24.752;2023-07-20T05:52:07;23.42;;;6.45;;
70342;SDS011;57767;42.068;24.752;2023-07-20T05:53:09;14.93;;;6.00;;
70342;SDS011;57767;42.068;24.752;2023-07-20T05:54:10;12.50;;;5.57;;
70342;SDS011;57767;42.068;24.752;2023-07-20T05:55:12;17.00;;;6.15;;
70342;SDS011;57767;42.068;24.752;2023-07-20T05:56:14;13.40;;;5.38;;
70342;SDS011;57767;42.068;24.752;2023-07-20T05:57:16;28.75;;;15.10;;
70342;SDS011;57767;42.068;24.752;2023-07-20T05:58:20;14.90;;;7.38;;
70342;SDS011;57767;42.068;24.752;2023-07-20T05:59:23;19.77;;;7.07;;
70342;SDS011;57767;42.068;24.752;2023-07-20T06:00:26;14.90;;;6.22;;
70342;SDS011;57767;42.068;24.752;2023-07-20T06:01:28;12.73;;;6.07;;
70342;SDS011;57767;42.068;24.752;2023-07-20T06:02:29;18.65;;;6.00;;
70342;SDS011;57767;42.068;24.752;2023-07-20T06:03:32;15.05;;;6.10;;
70342;SDS011;57767;42.068;24.752;2023-07-20T06:04:35;15.65;;;5.65;;
70342;SDS011;57767;42.068;24.752;2023-07-20T06:05:37;13.23;;;5.38;;
70342;SDS011;57767;42.068;24.752;2023-07-20T06:06:39;10.90;;;5.25;;
70342;SDS011;57767;42.068;24.752;2023-07-20T06:07:40;9.23;;;5.00;;
70342;SDS011;57767;42.068;24.752;2023-07-20T06:08:42;13.82;;;5.43;;
70342;SDS011;57767;42.068;24.752;2023-07-20T06:09:44;11.38;;;5.30;;
70342;SDS011;57767;42.068;24.752;2023-07-20T06:10:49;10.20;;;5.05;;
70342;SDS011;57767;42.068;24.752;2023-07-20T06:11:53;10.82;;;5.45;;
70342;SDS011;57767;42.068;24.752;2023-07-20T06:12:55;19.15;;;6.03;;
70342;SDS011;57767;42.068;24.752;2023-07-20T06:13:57;19.58;;;7.18;;
70342;SDS011;57767;42.068;24.752;2023-07-20T06:15:03;17.08;;;5.90;;
70342;SDS011;57767;42.068;24.752;2023-07-20T06:16:06;38.08;;;11.32;;
70342;SDS011;57767;42.068;24.752;2023-07-20T06:17:08;16.08;;;7.97;;
70342;SDS011;57767;42.068;24.752;2023-07-20T06:18:10;17.67;;;7.53;;